sensor_id;sensor_type;location;lat;lon;timestamp;noise_LAeq;noise_LA_min;noise_LA_max;noise_LA01;noise_LA95
49732;Laerm;43666;51.442;6.778;2024-02-23T00:00:11;36.90;30.89;41.06;;
49732;Laerm;43666;51.442;6.778;2024-02-23T00:02:38;37.09;31.68;40.33;;
49732;Laerm;43666;51.442;6.778;2024-02-23T00:05:04;37.02;32.35;40.80;;
49732;Laerm;43666;51.442;6.778;2024-02-23T00:07:30;36.89;30.89;40.43;;
49732;Laerm;43666;51.442;6.778;2024-02-23T00:09:56;36.91;31.68;40.33;;
49732;Laerm;43666;51.442;6.778;2024-02-23T00:12:22;37.02;30.89;40.23;;
49732;Laerm;43666;51.442;6.778;2024-02-23T00:14:47;36.94;32.35;39.81;;
49732;Laerm;43666;51.442;6.778;2024-02-23T00:17:13;36.96;30.89;39.70;;
49732;Laerm;43666;51.442;6.778;2024-02-23T00:19:39;36.96;30.89;40.13;;
49732;Laerm;43666;51.442;6.778;2024-02-23T00:22:05;36.90;29.92;40.03;;
49732;Laerm;43666;51.442;6.778;2024-02-23T00:24:30;36.94;26.91;40.13;;
49732;Laerm;43666;51.442;6.778;2024-02-23T00:26:57;36.84;29.92;40.53;;
49732;Laerm;43666;51.442;6.778;2024-02-23T00:29:23;36.90;30.89;40.03;;
49732;Laerm;43666;51.442;6.778;2024-02-23T00:31:49;36.92;29.92;39.58;;
49732;Laerm;43666;51.442;6.778;2024-02-23T00:34:15;37.01;31.68;40.03;;
49732;Laerm;43666;51.442;6.778;2024-02-23T00:36:41;36.95;31.68;39.92;;
49732;Laerm;43666;51.442;6.778;2024-02-23T00:39:07;36.99;30.89;40.13;;
49732;Laerm;43666;51.442;6.778;2024-02-23T00:41:34;37.12;31.68;40.62;;
49732;Laerm;43666;51.442;6.778;2024-02-23T00:44:01;37.10;30.54;39.92;;
49732;Laerm;43666;51.442;6.778;2024-02-23T00:46:27;36.96;29.92;40.23;;
49732;Laerm;43666;51.442;6.778;2024-02-23T00:48:53;36.87;31.68;39.92;;
49732;Laerm;43666;51.442;6.778;2024-02-23T00:51:20;36.87;29.92;39.81;;
49732;Laerm;43666;51.442;6.778;2024-02-23T00:53:46;36.86;30.89;39.92;;
49732;Laerm;43666;51.442;6.778;2024-02-23T00:56:12;36.85;30.89;40.03;;
49732;Laerm;43666;51.442;6.778;2024-02-23T00:58:38;36.91;30.89;39.70;;
49732;Laerm;43666;51.442;6.778;2024-02-23T01:01:04;36.84;29.92;39.92;;
49732;Laerm;43666;51.442;6.778;2024-02-23T01:03:30;36.86;29.57;39.81;;
49732;Laerm;43666;51.442;6.778;2024-02-23T01:05:56;36.87;30.89;39.70;;
49732;Laerm;43666;51.442;6.778;2024-02-23T01:08:22;36.92;31.68;40.13;;
49732;Laerm;43666;51.442;6.778;2024-02-23T01:10:48;36.87;31.68;39.70;;
49732;Laerm;43666;51.442;6.778;2024-02-23T01:13:14;36.84;32.35;39.58;;
49732;Laerm;43666;51.442;6.778;2024-02-23T01:15:41;36.90;32.35;40.13;;
49732;Laerm;43666;51.442;6.778;2024-02-23T01:18:07;36.86;29.92;39.58;;
49732;Laerm;43666;51.442;6.778;2024-02-23T01:20:33;36.88;32.35;40.23;;
49732;Laerm;43666;51.442;6.778;2024-02-23T01:23:00;36.86;31.68;39.70;;
49732;Laerm;43666;51.442;6.778;2024-02-23T01:25:26;36.88;31.68;39.92;;
49732;Laerm;43666;51.442;6.778;2024-02-23T01:27:52;36.88;30.89;39.70;;
49732;Laerm;43666;51.442;6.778;2024-02-23T01:30:18;36.86;32.35;39.81;;
49732;Laerm;43666;51.442;6.778;2024-02-23T01:32:47;36.90;31.68;40.03;;
49732;Laerm;43666;51.442;6.778;2024-02-23T01:35:13;36.87;31.68;40.33;;
49732;Laerm;43666;51.442;6.778;2024-02-23T01:37:39;36.88;31.68;39.58;;
49732;Laerm;43666;51.442;6.778;2024-02-23T01:40:05;36.92;31.68;40.03;;
49732;Laerm;43666;51.442;6.778;2024-02-23T01:42:31;36.90;28.67;39.92;;
49732;Laerm;43666;51.442;6.778;2024-02-23T01:44:57;36.89;31.68;40.23;;
49732;Laerm;43666;51.442;6.778;2024-02-23T01:47:26;36.89;31.68;40.03;;
49732;Laerm;43666;51.442;6.778;2024-02-23T01:49:53;36.87;30.89;40.23;;
49732;Laerm;43666;51.442;6.778;2024-02-23T01:52:20;36.85;30.89;40.23;;
49732;Laerm;43666;51.442;6.778;2024-02-23T01:54:46;36.86;29.92;39.70;;
49732;Laerm;43666;51.442;6.778;2024-02-23T01:57:12;36.87;30.89;40.03;;
49732;Laerm;43666;51.442;6.778;2024-02-23T01:59:38;36.84;31.68;39.92;;
49732;Laerm;43666;51.442;6.778;2024-02-23T02:02:05;36.87;30.89;39.70;;
49732;Laerm;43666;51.442;6.778;2024-02-23T02:04:31;36.91;30.89;41.14;;
49732;Laerm;43666;51.442;6.778;2024-02-23T02:06:58;36.88;31.68;39.92;;
49732;Laerm;43666;51.442;6.778;2024-02-23T02:09:25;36.88;31.68;40.43;;
49732;Laerm;43666;51.442;6.778;2024-02-23T02:11:51;36.87;30.89;39.58;;
49732;Laerm;43666;51.442;6.778;2024-02-23T02:14:17;36.88;32.35;39.34;;
49732;Laerm;43666;51.442;6.778;2024-02-23T02:16:43;36.92;31.68;40.13;;
49732;Laerm;43666;51.442;6.778;2024-02-23T02:19:12;36.89;31.68;40.13;;
49732;Laerm;43666;51.442;6.778;2024-02-23T02:21:38;36.89;29.92;39.70;;
49732;Laerm;43666;51.442;6.778;2024-02-23T02:24:05;36.87;31.68;39.70;;
49732;Laerm;43666;51.442;6.778;2024-02-23T02:26:31;36.85;29.92;39.70;;
49732;Laerm;43666;51.442;6.778;2024-02-23T02:28:57;36.84;31.68;39.70;;
49732;Laerm;43666;51.442;6.778;2024-02-23T02:31:23;36.86;30.89;39.81;;
49732;Laerm;43666;51.442;6.778;2024-02-23T02:33:49;36.85;31.68;39.70;;
49732;Laerm;43666;51.442;6.778;2024-02-23T02:36:15;36.86;31.68;39.58;;
49732;Laerm;43666;51.442;6.778;2024-02-23T02:38:42;36.82;30.89;40.03;;
49732;Laerm;43666;51.442;6.778;2024-02-23T02:41:08;36.86;30.89;39.70;;
49732;Laerm;43666;51.442;6.778;2024-02-23T02:43:37;36.85;30.89;39.78;;
49732;Laerm;43666;51.442;6.778;2024-02-23T02:46:03;36.86;30.89;40.03;;
49732;Laerm;43666;51.442;6.778;2024-02-23T02:48:29;36.84;31.68;39.58;;
49732;Laerm;43666;51.442;6.778;2024-02-23T02:50:55;36.85;31.68;39.92;;
49732;Laerm;43666;51.442;6.778;2024-02-23T02:53:21;36.88;32.35;39.81;;
49732;Laerm;43666;51.442;6.778;2024-02-23T02:55:47;36.88;32.35;39.81;;
49732;Laerm;43666;51.442;6.778;2024-02-23T02:58:12;36.83;30.89;39.92;;
49732;Laerm;43666;51.442;6.778;2024-02-23T03:00:39;36.84;31.68;39.58;;
49732;Laerm;43666;51.442;6.778;2024-02-23T03:03:04;36.85;30.89;39.81;;
49732;Laerm;43666;51.442;6.778;2024-02-23T03:05:30;36.87;31.68;39.92;;
49732;Laerm;43666;51.442;6.778;2024-02-23T03:07:57;36.88;31.68;39.70;;
49732;Laerm;43666;51.442;6.778;2024-02-23T03:10:23;36.86;31.68;39.81;;
49732;Laerm;43666;51.442;6.778;2024-02-23T03:12:49;36.86;31.68;40.23;;
49732;Laerm;43666;51.442;6.778;2024-02-23T03:15:14;36.87;31.68;39.70;;
49732;Laerm;43666;51.442;6.778;2024-02-23T03:17:40;36.87;30.89;39.81;;
49732;Laerm;43666;51.442;6.778;2024-02-23T03:20:06;36.84;31.68;39.81;;
49732;Laerm;43666;51.442;6.778;2024-02-23T03:22:37;36.86;30.89;39.70;;
49732;Laerm;43666;51.442;6.778;2024-02-23T03:25:03;36.82;29.92;39.81;;
49732;Laerm;43666;51.442;6.778;2024-02-23T03:27:39;36.84;30.89;39.58;;
49732;Laerm;43666;51.442;6.778;2024-02-23T03:30:05;36.88;31.68;39.70;;
49732;Laerm;43666;51.442;6.778;2024-02-23T03:32:33;36.90;30.89;39.81;;
49732;Laerm;43666;51.442;6.778;2024-02-23T03:35:10;36.87;29.92;39.46;;
49732;Laerm;43666;51.442;6.778;2024-02-23T03:37:36;36.89;29.92;39.58;;
49732;Laerm;43666;51.442;6.778;2024-02-23T03:40:02;36.88;26.91;40.13;;
49732;Laerm;43666;51.442;6.778;2024-02-23T03:42:28;36.86;31.68;39.99;;
49732;Laerm;43666;51.442;6.778;2024-02-23T03:44:55;36.89;32.35;39.81;;
49732;Laerm;43666;51.442;6.778;2024-02-23T03:47:20;36.86;30.89;39.70;;
49732;Laerm;43666;51.442;6.778;2024-02-23T03:49:46;36.89;32.00;39.92;;
49732;Laerm;43666;51.442;6.778;2024-02-23T03:52:12;36.85;30.89;39.81;;
49732;Laerm;43666;51.442;6.778;2024-02-23T03:54:39;36.88;29.92;40.13;;
49732;Laerm;43666;51.442;6.778;2024-02-23T03:57:05;36.87;32.35;39.70;;
49732;Laerm;43666;51.442;6.778;2024-02-23T03:59:31;36.92;30.89;39.92;;
49732;Laerm;43666;51.442;6.778;2024-02-23T04:01:57;36.92;31.68;40.03;;
49732;Laerm;43666;51.442;6.778;2024-02-23T04:04:23;36.92;31.68;39.81;;
49732;Laerm;43666;51.442;6.778;2024-02-23T04:06:49;36.93;31.68;39.58;;
49732;Laerm;43666;51.442;6.778;2024-02-23T04:09:14;36.91;31.68;39.58;;
49732;Laerm;43666;51.442;6.778;2024-02-23T04:11:40;36.89;30.54;39.92;;
49732;Laerm;43666;51.442;6.778;2024-02-23T04:14:06;36.97;31.68;40.13;;
49732;Laerm;43666;51.442;6.778;2024-02-23T04:16:32;36.87;29.92;39.92;;
49732;Laerm;43666;51.442;6.778;2024-02-23T04:19:17;36.92;32.35;40.13;;
49732;Laerm;43666;51.442;6.778;2024-02-23T04:21:44;36.96;30.89;40.03;;
49732;Laerm;43666;51.442;6.778;2024-02-23T04:24:10;36.95;31.68;39.70;;
49732;Laerm;43666;51.442;6.778;2024-02-23T04:26:36;36.97;32.35;40.03;;
49732;Laerm;43666;51.442;6.778;2024-02-23T04:29:02;36.96;32.35;39.70;;
49732;Laerm;43666;51.442;6.778;2024-02-23T04:31:28;36.92;32.35;39.70;;
49732;Laerm;43666;51.442;6.778;2024-02-23T04:33:54;36.95;30.89;39.81;;
49732;Laerm;43666;51.442;6.778;2024-02-23T04:36:20;36.92;31.33;39.81;;
49732;Laerm;43666;51.442;6.778;2024-02-23T04:38:46;36.92;30.89;39.70;;
49732;Laerm;43666;51.442;6.778;2024-02-23T04:41:13;36.91;30.89;39.92;;
49732;Laerm;43666;51.442;6.778;2024-02-23T04:43:39;36.90;29.92;39.92;;
49732;Laerm;43666;51.442;6.778;2024-02-23T04:46:04;36.90;30.89;39.70;;
49732;Laerm;43666;51.442;6.778;2024-02-23T04:48:31;36.90;30.89;39.92;;
49732;Laerm;43666;51.442;6.778;2024-02-23T04:50:57;36.90;31.68;39.92;;
49732;Laerm;43666;51.442;6.778;2024-02-23T04:53:23;36.88;32.35;39.89;;
49732;Laerm;43666;51.442;6.778;2024-02-23T04:55:49;36.92;31.68;39.81;;
49732;Laerm;43666;51.442;6.778;2024-02-23T04:58:15;36.90;32.35;39.70;;
49732;Laerm;43666;51.442;6.778;2024-02-23T05:00:41;36.90;30.89;39.81;;
49732;Laerm;43666;51.442;6.778;2024-02-23T05:03:07;36.89;32.35;39.92;;
49732;Laerm;43666;51.442;6.778;2024-02-23T05:05:34;36.86;30.89;39.92;;
49732;Laerm;43666;51.442;6.778;2024-02-23T05:08:00;36.85;31.68;39.81;;
49732;Laerm;43666;51.442;6.778;2024-02-23T05:10:26;36.87;30.89;39.46;;
49732;Laerm;43666;51.442;6.778;2024-02-23T05:12:52;36.87;30.89;39.92;;
49732;Laerm;43666;51.442;6.778;2024-02-23T05:15:17;36.89;31.68;39.57;;
49732;Laerm;43666;51.442;6.778;2024-02-23T05:17:43;36.88;30.89;39.58;;
49732;Laerm;43666;51.442;6.778;2024-02-23T05:20:09;36.89;31.68;39.70;;
49732;Laerm;43666;51.442;6.778;2024-02-23T05:22:36;36.89;31.68;39.70;;
49732;Laerm;43666;51.442;6.778;2024-02-23T05:25:01;36.88;30.89;39.81;;
49732;Laerm;43666;51.442;6.778;2024-02-23T05:27:27;36.90;31.33;39.70;;
49732;Laerm;43666;51.442;6.778;2024-02-23T05:29:53;36.86;30.89;39.58;;
49732;Laerm;43666;51.442;6.778;2024-02-23T05:32:19;36.88;31.68;39.81;;
49732;Laerm;43666;51.442;6.778;2024-02-23T05:34:45;36.89;32.35;39.46;;
49732;Laerm;43666;51.442;6.778;2024-02-23T05:37:11;36.88;30.89;39.70;;
49732;Laerm;43666;51.442;6.778;2024-02-23T05:39:37;36.87;29.92;40.03;;
49732;Laerm;43666;51.442;6.778;2024-02-23T05:42:03;36.89;31.68;39.81;;
49732;Laerm;43666;51.442;6.778;2024-02-23T05:44:30;36.87;31.68;39.58;;
49732;Laerm;43666;51.442;6.778;2024-02-23T05:46:56;36.86;31.68;39.58;;
49732;Laerm;43666;51.442;6.778;2024-02-23T05:49:22;36.88;32.35;39.58;;
49732;Laerm;43666;51.442;6.778;2024-02-23T05:51:47;36.84;31.68;39.81;;
49732;Laerm;43666;51.442;6.778;2024-02-23T05:54:13;36.89;30.89;40.03;;
49732;Laerm;43666;51.442;6.778;2024-02-23T05:56:39;36.84;31.68;39.81;;
49732;Laerm;43666;51.442;6.778;2024-02-23T05:59:06;36.84;29.92;39.70;;
49732;Laerm;43666;51.442;6.778;2024-02-23T06:01:31;36.91;32.35;39.81;;
49732;Laerm;43666;51.442;6.778;2024-02-23T06:03:57;36.87;30.89;39.70;;
49732;Laerm;43666;51.442;6.778;2024-02-23T06:06:24;36.88;31.68;39.81;;
49732;Laerm;43666;51.442;6.778;2024-02-23T06:08:50;36.86;32.35;40.13;;
49732;Laerm;43666;51.442;6.778;2024-02-23T06:11:16;36.88;31.68;39.70;;
49732;Laerm;43666;51.442;6.778;2024-02-23T06:13:42;36.85;31.68;40.03;;
49732;Laerm;43666;51.442;6.778;2024-02-23T06:16:11;36.87;31.68;39.70;;
49732;Laerm;43666;51.442;6.778;2024-02-23T06:18:38;36.85;30.89;39.58;;
49732;Laerm;43666;51.442;6.778;2024-02-23T06:21:13;36.85;30.54;39.92;;
49732;Laerm;43666;51.442;6.778;2024-02-23T06:23:40;36.84;30.89;39.58;;
49732;Laerm;43666;51.442;6.778;2024-02-23T06:26:06;36.86;31.68;39.58;;
49732;Laerm;43666;51.442;6.778;2024-02-23T06:28:32;36.87;31.68;39.70;;
49732;Laerm;43666;51.442;6.778;2024-02-23T06:30:58;36.87;31.68;39.58;;
49732;Laerm;43666;51.442;6.778;2024-02-23T06:33:24;36.86;31.68;39.81;;
49732;Laerm;43666;51.442;6.778;2024-02-23T06:35:50;36.91;30.89;39.58;;
49732;Laerm;43666;51.442;6.778;2024-02-23T06:38:18;36.89;31.68;39.46;;
49732;Laerm;43666;51.442;6.778;2024-02-23T06:40:44;36.87;30.89;39.58;;
49732;Laerm;43666;51.442;6.778;2024-02-23T06:43:11;36.89;31.68;39.81;;
49732;Laerm;43666;51.442;6.778;2024-02-23T06:45:37;36.92;30.89;39.81;;
49732;Laerm;43666;51.442;6.778;2024-02-23T06:48:02;36.90;30.89;39.81;;
49732;Laerm;43666;51.442;6.778;2024-02-23T06:50:29;36.92;29.92;39.92;;
49732;Laerm;43666;51.442;6.778;2024-02-23T06:52:55;36.89;31.68;40.23;;
49732;Laerm;43666;51.442;6.778;2024-02-23T06:55:20;36.91;31.68;39.70;;
49732;Laerm;43666;51.442;6.778;2024-02-23T06:57:46;36.92;31.68;39.81;;
49732;Laerm;43666;51.442;6.778;2024-02-23T07:00:12;36.92;28.67;40.03;;
49732;Laerm;43666;51.442;6.778;2024-02-23T07:02:39;36.94;31.68;40.23;;
49732;Laerm;43666;51.442;6.778;2024-02-23T07:05:04;36.93;32.35;39.81;;
49732;Laerm;43666;51.442;6.778;2024-02-23T07:07:31;36.95;32.00;39.46;;
49732;Laerm;43666;51.442;6.778;2024-02-23T07:09:59;36.96;31.68;40.13;;
49732;Laerm;43666;51.442;6.778;2024-02-23T07:12:25;36.98;31.68;39.81;;
49732;Laerm;43666;51.442;6.778;2024-02-23T07:14:53;37.00;30.89;40.13;;
49732;Laerm;43666;51.442;6.778;2024-02-23T07:17:19;36.96;30.89;39.70;;
49732;Laerm;43666;51.442;6.778;2024-02-23T07:19:45;37.00;31.68;39.58;;
49732;Laerm;43666;51.442;6.778;2024-02-23T07:22:11;37.04;31.68;39.92;;
49732;Laerm;43666;51.442;6.778;2024-02-23T07:24:41;37.05;32.35;40.13;;
49732;Laerm;43666;51.442;6.778;2024-02-23T07:27:06;36.99;32.35;39.70;;
49732;Laerm;43666;51.442;6.778;2024-02-23T07:29:32;37.02;32.35;39.89;;
49732;Laerm;43666;51.442;6.778;2024-02-23T07:31:58;37.02;32.93;40.13;;
49732;Laerm;43666;51.442;6.778;2024-02-23T07:34:25;37.03;32.35;40.13;;
49732;Laerm;43666;51.442;6.778;2024-02-23T07:36:57;37.03;31.68;40.13;;
49732;Laerm;43666;51.442;6.778;2024-02-23T07:39:23;37.03;32.93;40.03;;
49732;Laerm;43666;51.442;6.778;2024-02-23T07:41:50;37.01;31.68;39.57;;
49732;Laerm;43666;51.442;6.778;2024-02-23T07:44:15;37.04;31.68;39.70;;
49732;Laerm;43666;51.442;6.778;2024-02-23T07:46:42;37.07;32.93;39.99;;
49732;Laerm;43666;51.442;6.778;2024-02-23T07:49:09;37.05;31.68;39.92;;
49732;Laerm;43666;51.442;6.778;2024-02-23T07:51:35;37.12;31.68;39.81;;
49732;Laerm;43666;51.442;6.778;2024-02-23T07:54:01;37.12;30.89;39.81;;
49732;Laerm;43666;51.442;6.778;2024-02-23T07:56:28;37.10;32.35;39.70;;
49732;Laerm;43666;51.442;6.778;2024-02-23T07:58:55;37.09;32.35;39.81;;
49732;Laerm;43666;51.442;6.778;2024-02-23T08:01:22;37.11;30.89;39.70;;
49732;Laerm;43666;51.442;6.778;2024-02-23T08:03:48;37.13;29.92;39.70;;
49732;Laerm;43666;51.442;6.778;2024-02-23T08:06:14;37.14;32.35;40.13;;
49732;Laerm;43666;51.442;6.778;2024-02-23T08:08:40;37.13;32.35;39.81;;
49732;Laerm;43666;51.442;6.778;2024-02-23T08:11:06;37.11;31.68;40.03;;
49732;Laerm;43666;51.442;6.778;2024-02-23T08:13:31;37.09;32.58;39.81;;
49732;Laerm;43666;51.442;6.778;2024-02-23T08:15:57;37.05;30.89;40.03;;
49732;Laerm;43666;51.442;6.778;2024-02-23T08:18:23;37.15;31.68;39.92;;
49732;Laerm;43666;51.442;6.778;2024-02-23T08:20:49;37.12;32.35;39.70;;
49732;Laerm;43666;51.442;6.778;2024-02-23T08:23:15;37.10;32.35;39.70;;
49732;Laerm;43666;51.442;6.778;2024-02-23T08:25:41;37.08;32.35;40.13;;
49732;Laerm;43666;51.442;6.778;2024-02-23T08:28:07;37.08;32.93;39.92;;
49732;Laerm;43666;51.442;6.778;2024-02-23T08:30:33;37.06;32.35;39.70;;
49732;Laerm;43666;51.442;6.778;2024-02-23T08:32:59;37.09;32.35;39.92;;
49732;Laerm;43666;51.442;6.778;2024-02-23T08:35:26;37.11;30.89;39.92;;
49732;Laerm;43666;51.442;6.778;2024-02-23T08:37:51;37.10;32.35;39.92;;
49732;Laerm;43666;51.442;6.778;2024-02-23T08:40:17;37.13;32.93;40.03;;
49732;Laerm;43666;51.442;6.778;2024-02-23T08:42:43;37.13;33.44;39.58;;
49732;Laerm;43666;51.442;6.778;2024-02-23T08:45:09;37.12;32.93;40.03;;
49732;Laerm;43666;51.442;6.778;2024-02-23T08:47:39;37.13;32.35;39.92;;
49732;Laerm;43666;51.442;6.778;2024-02-23T08:50:05;37.11;32.35;39.46;;
49732;Laerm;43666;51.442;6.778;2024-02-23T08:52:31;37.13;32.35;40.03;;
49732;Laerm;43666;51.442;6.778;2024-02-23T08:54:57;37.11;31.68;39.81;;
49732;Laerm;43666;51.442;6.778;2024-02-23T08:57:23;37.12;32.35;39.81;;
49732;Laerm;43666;51.442;6.778;2024-02-23T08:59:50;37.14;32.93;39.81;;
49732;Laerm;43666;51.442;6.778;2024-02-23T09:02:17;37.18;32.35;40.23;;
49732;Laerm;43666;51.442;6.778;2024-02-23T09:04:43;37.22;32.58;39.81;;
49732;Laerm;43666;51.442;6.778;2024-02-23T09:07:11;37.21;30.89;39.81;;
49732;Laerm;43666;51.442;6.778;2024-02-23T09:09:37;37.23;32.35;40.43;;
49732;Laerm;43666;51.442;6.778;2024-02-23T09:12:03;37.24;32.35;39.92;;
49732;Laerm;43666;51.442;6.778;2024-02-23T09:14:30;37.30;32.35;39.92;;
49732;Laerm;43666;51.442;6.778;2024-02-23T09:16:56;37.26;32.35;39.92;;
49732;Laerm;43666;51.442;6.778;2024-02-23T09:19:22;37.28;32.93;39.92;;
49732;Laerm;43666;51.442;6.778;2024-02-23T09:21:48;37.27;33.44;40.03;;
49732;Laerm;43666;51.442;6.778;2024-02-23T09:24:14;37.27;32.93;40.13;;
49732;Laerm;43666;51.442;6.778;2024-02-23T09:26:40;37.26;32.93;39.92;;
49732;Laerm;43666;51.442;6.778;2024-02-23T09:29:06;37.25;32.35;39.92;;
49732;Laerm;43666;51.442;6.778;2024-02-23T09:31:32;37.26;33.44;40.23;;
49732;Laerm;43666;51.442;6.778;2024-02-23T09:33:58;37.26;33.44;40.03;;
49732;Laerm;43666;51.442;6.778;2024-02-23T09:36:24;37.24;32.35;40.13;;
49732;Laerm;43666;51.442;6.778;2024-02-23T09:38:50;37.24;32.93;40.33;;
49732;Laerm;43666;51.442;6.778;2024-02-23T09:41:23;37.25;32.93;39.81;;
49732;Laerm;43666;51.442;6.778;2024-02-23T09:43:49;37.20;32.93;40.03;;
49732;Laerm;43666;51.442;6.778;2024-02-23T09:46:17;37.22;32.93;40.53;;
49732;Laerm;43666;51.442;6.778;2024-02-23T09:48:43;37.22;32.93;39.81;;
49732;Laerm;43666;51.442;6.778;2024-02-23T09:51:11;37.23;32.93;40.33;;
49732;Laerm;43666;51.442;6.778;2024-02-23T09:53:38;37.24;32.35;39.70;;
49732;Laerm;43666;51.442;6.778;2024-02-23T09:56:04;37.27;33.44;40.03;;
49732;Laerm;43666;51.442;6.778;2024-02-23T09:58:31;37.28;32.93;40.98;;
49732;Laerm;43666;51.442;6.778;2024-02-23T10:00:58;37.27;33.44;47.42;;
49732;Laerm;43666;51.442;6.778;2024-02-23T10:03:28;37.28;32.35;40.62;;
49732;Laerm;43666;51.442;6.778;2024-02-23T10:05:56;37.28;33.44;39.92;;
49732;Laerm;43666;51.442;6.778;2024-02-23T10:08:22;37.25;32.35;39.81;;
49732;Laerm;43666;51.442;6.778;2024-02-23T10:10:48;37.27;33.44;40.13;;
49732;Laerm;43666;51.442;6.778;2024-02-23T10:13:19;37.32;32.93;39.81;;
49732;Laerm;43666;51.442;6.778;2024-02-23T10:15:48;37.29;32.93;40.13;;
49732;Laerm;43666;51.442;6.778;2024-02-23T10:18:14;37.30;33.44;40.23;;
49732;Laerm;43666;51.442;6.778;2024-02-23T10:20:40;37.28;33.44;39.92;;
49732;Laerm;43666;51.442;6.778;2024-02-23T10:23:07;37.29;33.90;40.13;;
49732;Laerm;43666;51.442;6.778;2024-02-23T10:25:33;37.29;33.44;39.92;;
49732;Laerm;43666;51.442;6.778;2024-02-23T10:27:59;37.30;32.35;39.81;;
49732;Laerm;43666;51.442;6.778;2024-02-23T10:30:27;37.29;32.35;40.13;;
49732;Laerm;43666;51.442;6.778;2024-02-23T10:32:55;37.33;33.44;40.03;;
49732;Laerm;43666;51.442;6.778;2024-02-23T10:35:21;37.33;33.44;39.81;;
49732;Laerm;43666;51.442;6.778;2024-02-23T10:37:48;37.32;32.93;39.92;;
49732;Laerm;43666;51.442;6.778;2024-02-23T10:40:16;37.38;33.44;40.13;;
49732;Laerm;43666;51.442;6.778;2024-02-23T10:42:44;37.38;33.09;39.70;;
49732;Laerm;43666;51.442;6.778;2024-02-23T10:45:16;37.32;33.44;40.23;;
49732;Laerm;43666;51.442;6.778;2024-02-23T10:47:42;37.32;32.93;40.03;;
49732;Laerm;43666;51.442;6.778;2024-02-23T10:50:08;37.36;32.93;40.13;;
49732;Laerm;43666;51.442;6.778;2024-02-23T10:52:35;37.33;32.35;40.13;;
49732;Laerm;43666;51.442;6.778;2024-02-23T10:55:01;37.34;33.90;39.92;;
49732;Laerm;43666;51.442;6.778;2024-02-23T10:57:31;37.38;32.93;40.03;;
49732;Laerm;43666;51.442;6.778;2024-02-23T10:59:58;37.38;33.44;40.33;;
49732;Laerm;43666;51.442;6.778;2024-02-23T11:02:25;37.39;33.44;39.92;;
49732;Laerm;43666;51.442;6.778;2024-02-23T11:04:53;37.43;33.90;40.03;;
49732;Laerm;43666;51.442;6.778;2024-02-23T11:07:20;37.41;33.44;40.18;;
49732;Laerm;43666;51.442;6.778;2024-02-23T11:09:52;37.43;33.44;40.23;;
49732;Laerm;43666;51.442;6.778;2024-02-23T11:12:26;37.43;34.31;40.33;;
49732;Laerm;43666;51.442;6.778;2024-02-23T11:14:56;37.45;33.44;39.92;;
49732;Laerm;43666;51.442;6.778;2024-02-23T11:17:22;37.47;33.90;39.92;;
49732;Laerm;43666;51.442;6.778;2024-02-23T11:19:50;37.49;33.90;40.13;;
49732;Laerm;43666;51.442;6.778;2024-02-23T11:22:23;37.48;33.44;40.23;;
49732;Laerm;43666;51.442;6.778;2024-02-23T11:24:49;37.46;33.90;40.03;;
49732;Laerm;43666;51.442;6.778;2024-02-23T11:27:16;37.48;33.90;40.23;;
49732;Laerm;43666;51.442;6.778;2024-02-23T11:29:45;37.44;32.93;40.03;;
49732;Laerm;43666;51.442;6.778;2024-02-23T11:32:13;37.48;33.44;40.03;;
49732;Laerm;43666;51.442;6.778;2024-02-23T11:34:40;37.49;32.93;39.92;;
49732;Laerm;43666;51.442;6.778;2024-02-23T11:37:11;37.46;33.90;39.92;;
49732;Laerm;43666;51.442;6.778;2024-02-23T11:39:38;37.47;33.90;40.13;;
49732;Laerm;43666;51.442;6.778;2024-02-23T11:42:06;37.47;33.90;40.13;;
49732;Laerm;43666;51.442;6.778;2024-02-23T11:44:32;37.48;33.44;40.03;;
49732;Laerm;43666;51.442;6.778;2024-02-23T11:46:59;37.45;32.93;39.81;;
49732;Laerm;43666;51.442;6.778;2024-02-23T11:49:28;37.44;33.44;40.33;;
49732;Laerm;43666;51.442;6.778;2024-02-23T11:51:56;37.45;32.93;40.23;;
49732;Laerm;43666;51.442;6.778;2024-02-23T11:54:22;37.40;33.55;40.23;;
49732;Laerm;43666;51.442;6.778;2024-02-23T11:56:49;37.42;33.44;40.33;;
49732;Laerm;43666;51.442;6.778;2024-02-23T11:59:15;37.44;32.93;39.99;;
49732;Laerm;43666;51.442;6.778;2024-02-23T12:01:42;37.47;33.90;40.33;;
49732;Laerm;43666;51.442;6.778;2024-02-23T12:04:08;37.43;32.93;40.13;;
49732;Laerm;43666;51.442;6.778;2024-02-23T12:06:34;37.49;33.90;39.92;;
49732;Laerm;43666;51.442;6.778;2024-02-23T12:09:01;37.53;33.44;40.23;;
49732;Laerm;43666;51.442;6.778;2024-02-23T12:11:27;37.56;33.44;40.03;;
49732;Laerm;43666;51.442;6.778;2024-02-23T12:13:53;37.56;33.90;40.13;;
49732;Laerm;43666;51.442;6.778;2024-02-23T12:16:20;37.52;33.44;40.23;;
49732;Laerm;43666;51.442;6.778;2024-02-23T12:18:46;37.51;33.90;40.03;;
49732;Laerm;43666;51.442;6.778;2024-02-23T12:21:18;37.42;32.93;40.03;;
49732;Laerm;43666;51.442;6.778;2024-02-23T12:23:45;37.39;32.93;40.03;;
49732;Laerm;43666;51.442;6.778;2024-02-23T12:26:15;37.39;33.44;40.13;;
49732;Laerm;43666;51.442;6.778;2024-02-23T12:28:41;37.42;33.44;39.92;;
49732;Laerm;43666;51.442;6.778;2024-02-23T12:31:07;37.41;33.90;39.92;;
49732;Laerm;43666;51.442;6.778;2024-02-23T12:33:35;37.47;33.90;40.53;;
49732;Laerm;43666;51.442;6.778;2024-02-23T12:36:02;37.46;32.93;39.92;;
49732;Laerm;43666;51.442;6.778;2024-02-23T12:38:28;37.47;33.90;39.99;;
49732;Laerm;43666;51.442;6.778;2024-02-23T12:40:54;37.53;33.90;40.23;;
49732;Laerm;43666;51.442;6.778;2024-02-23T12:43:20;37.51;33.44;40.13;;
49732;Laerm;43666;51.442;6.778;2024-02-23T12:45:47;37.56;34.31;40.23;;
49732;Laerm;43666;51.442;6.778;2024-02-23T12:48:16;37.57;33.90;40.13;;
49732;Laerm;43666;51.442;6.778;2024-02-23T12:50:43;37.56;33.44;40.23;;
49732;Laerm;43666;51.442;6.778;2024-02-23T12:53:30;37.59;32.93;40.03;;
49732;Laerm;43666;51.442;6.778;2024-02-23T12:56:01;37.61;34.31;40.53;;
49732;Laerm;43666;51.442;6.778;2024-02-23T12:58:27;37.57;33.97;40.43;;
49732;Laerm;43666;51.442;6.778;2024-02-23T13:00:53;37.61;33.44;40.43;;
49732;Laerm;43666;51.442;6.778;2024-02-23T13:03:20;37.59;33.44;40.03;;
49732;Laerm;43666;51.442;6.778;2024-02-23T13:05:47;37.58;33.90;40.03;;
49732;Laerm;43666;51.442;6.778;2024-02-23T13:08:14;37.57;33.90;40.33;;
49732;Laerm;43666;51.442;6.778;2024-02-23T13:10:40;37.58;33.90;39.92;;
49732;Laerm;43666;51.442;6.778;2024-02-23T13:13:06;37.57;33.90;40.43;;
49732;Laerm;43666;51.442;6.778;2024-02-23T13:15:31;37.62;33.90;40.43;;
49732;Laerm;43666;51.442;6.778;2024-02-23T13:17:58;37.63;34.69;40.23;;
49732;Laerm;43666;51.442;6.778;2024-02-23T13:20:23;37.57;33.44;40.43;;
49732;Laerm;43666;51.442;6.778;2024-02-23T13:22:49;37.62;32.93;40.33;;
49732;Laerm;43666;51.442;6.778;2024-02-23T13:25:16;37.65;33.90;40.23;;
49732;Laerm;43666;51.442;6.778;2024-02-23T13:27:41;37.64;33.90;40.08;;
49732;Laerm;43666;51.442;6.778;2024-02-23T13:30:07;37.63;34.31;40.23;;
49732;Laerm;43666;51.442;6.778;2024-02-23T13:32:34;37.61;34.31;40.23;;
49732;Laerm;43666;51.442;6.778;2024-02-23T13:35:00;37.63;34.31;40.13;;
49732;Laerm;43666;51.442;6.778;2024-02-23T13:37:29;37.62;34.31;40.53;;
49732;Laerm;43666;51.442;6.778;2024-02-23T13:39:56;37.59;33.44;40.13;;